sensor_id;sensor_type;location;lat;lon;timestamp;pressure;altitude;pressure_sealevel;temperature;humidity
77685;BME280;66844;46.092;18.268;2023-08-08T00:00:16;99447.38;;;13.97;72.34
77685;BME280;66844;46.092;18.268;2023-08-08T00:00:48;99438.72;;;13.93;72.40
77685;BME280;66844;46.092;18.268;2023-08-08T00:01:20;99440.53;;;13.93;72.42
77685;BME280;66844;46.092;18.268;2023-08-08T00:01:52;99439.78;;;13.91;72.77
77685;BME280;66844;46.092;18.268;2023-08-08T00:02:24;99443.34;;;13.91;72.69
77685;BME280;66844;46.092;18.268;2023-08-08T00:02:56;99450.59;;;13.89;72.59
77685;BME280;66844;46.092;18.268;2023-08-08T00:03:28;99449.72;;;13.89;72.69
77685;BME280;66844;46.092;18.268;2023-08-08T00:04:00;99443.66;;;13.87;72.89
77685;BME280;66844;46.092;18.268;2023-08-08T00:04:32;99443.44;;;13.90;72.73
77685;BME280;66844;46.092;18.268;2023-08-08T00:05:04;99454.22;;;13.88;72.80
77685;BME280;66844;46.092;18.268;2023-08-08T00:05:36;99451.53;;;13.88;72.88
77685;BME280;66844;46.092;18.268;2023-08-08T00:06:08;99450.72;;;13.88;72.98
77685;BME280;66844;46.092;18.268;2023-08-08T00:06:40;99445.47;;;13.86;72.83
77685;BME280;66844;46.092;18.268;2023-08-08T00:07:12;99449.00;;;13.87;73.14
77685;BME280;66844;46.092;18.268;2023-08-08T00:07:44;99449.09;;;13.85;73.29
77685;BME280;66844;46.092;18.268;2023-08-08T00:08:16;99443.13;;;13.82;73.43
77685;BME280;66844;46.092;18.268;2023-08-08T00:08:48;99445.06;;;13.80;73.56
77685;BME280;66844;46.092;18.268;2023-08-08T00:09:20;99441.44;;;13.81;73.54
77685;BME280;66844;46.092;18.268;2023-08-08T00:09:52;99450.72;;;13.75;73.88
77685;BME280;66844;46.092;18.268;2023-08-08T00:10:23;99448.28;;;13.72;74.25
77685;BME280;66844;46.092;18.268;2023-08-08T00:10:55;99442.81;;;13.74;73.96
77685;BME280;66844;46.092;18.268;2023-08-08T00:11:28;99445.38;;;13.75;74.23
77685;BME280;66844;46.092;18.268;2023-08-08T00:11:59;99445.38;;;13.75;74.21
77685;BME280;66844;46.092;18.268;2023-08-08T00:12:32;99445.28;;;13.77;74.30
77685;BME280;66844;46.092;18.268;2023-08-08T00:13:04;99438.44;;;13.73;74.31
77685;BME280;66844;46.092;18.268;2023-08-08T00:13:36;99442.28;;;13.69;74.31
77685;BME280;66844;46.092;18.268;2023-08-08T00:14:08;99440.25;;;13.72;74.58
77685;BME280;66844;46.092;18.268;2023-08-08T00:14:40;99439.41;;;13.72;74.35
77685;BME280;66844;46.092;18.268;2023-08-08T00:15:12;99442.94;;;13.72;74.09
77685;BME280;66844;46.092;18.268;2023-08-08T00:15:44;99440.25;;;13.72;74.41
77685;BME280;66844;46.092;18.268;2023-08-08T00:16:16;99443.78;;;13.73;74.58
77685;BME280;66844;46.092;18.268;2023-08-08T00:16:48;99450.09;;;13.72;74.55
77685;BME280;66844;46.092;18.268;2023-08-08T00:17:20;99449.13;;;13.73;74.55
77685;BME280;66844;46.092;18.268;2023-08-08T00:17:52;99450.09;;;13.72;74.45
77685;BME280;66844;46.092;18.268;2023-08-08T00:18:24;99448.38;;;13.71;74.53
77685;BME280;66844;46.092;18.268;2023-08-08T00:18:56;99450.94;;;13.72;74.60
77685;BME280;66844;46.092;18.268;2023-08-08T00:19:28;99437.69;;;13.71;74.43
77685;BME280;66844;46.092;18.268;2023-08-08T00:20:00;99449.13;;;13.73;74.31
77685;BME280;66844;46.092;18.268;2023-08-08T00:20:32;99449.88;;;13.75;74.39
77685;BME280;66844;46.092;18.268;2023-08-08T00:21:04;99438.53;;;13.71;74.24
77685;BME280;66844;46.092;18.268;2023-08-08T00:21:36;99443.66;;;13.74;74.39
77685;BME280;66844;46.092;18.268;2023-08-08T00:22:08;99456.19;;;13.74;74.21
77685;BME280;66844;46.092;18.268;2023-08-08T00:22:40;99445.69;;;13.71;74.31
77685;BME280;66844;46.092;18.268;2023-08-08T00:23:12;99444.22;;;13.67;74.88
77685;BME280;66844;46.092;18.268;2023-08-08T00:23:44;99447.53;;;13.70;74.50
77685;BME280;66844;46.092;18.268;2023-08-08T00:24:16;99451.91;;;13.71;74.56
77685;BME280;66844;46.092;18.268;2023-08-08T00:24:48;99452.88;;;13.70;74.90
77685;BME280;66844;46.092;18.268;2023-08-08T00:25:20;99454.72;;;13.70;75.02
77685;BME280;66844;46.092;18.268;2023-08-08T00:25:52;99451.50;;;13.65;74.82
77685;BME280;66844;46.092;18.268;2023-08-08T00:26:24;99462.91;;;13.67;75.14
77685;BME280;66844;46.092;18.268;2023-08-08T00:26:56;99445.38;;;13.63;75.22
77685;BME280;66844;46.092;18.268;2023-08-08T00:27:28;99456.84;;;13.65;75.33
77685;BME280;66844;46.092;18.268;2023-08-08T00:28:00;99456.06;;;13.63;75.70
77685;BME280;66844;46.092;18.268;2023-08-08T00:28:31;99452.75;;;13.59;75.90
77685;BME280;66844;46.092;18.268;2023-08-08T00:29:03;99453.53;;;13.61;75.79
77685;BME280;66844;46.092;18.268;2023-08-08T00:29:35;99456.22;;;13.61;75.96
77685;BME280;66844;46.092;18.268;2023-08-08T00:30:08;99447.31;;;13.60;75.78
77685;BME280;66844;46.092;18.268;2023-08-08T00:30:40;99452.75;;;13.59;76.26
77685;BME280;66844;46.092;18.268;2023-08-08T00:31:12;99454.94;;;13.54;76.20
77685;BME280;66844;46.092;18.268;2023-08-08T00:31:44;99454.47;;;13.47;77.07
77685;BME280;66844;46.092;18.268;2023-08-08T00:32:16;99463.56;;;13.45;77.16
77685;BME280;66844;46.092;18.268;2023-08-08T00:32:48;99456.50;;;13.44;77.11
77685;BME280;66844;46.092;18.268;2023-08-08T00:33:20;99458.34;;;13.43;77.18
77685;BME280;66844;46.092;18.268;2023-08-08T00:33:52;99463.78;;;13.42;77.34
77685;BME280;66844;46.092;18.268;2023-08-08T00:34:24;99455.06;;;13.40;77.38
77685;BME280;66844;46.092;18.268;2023-08-08T00:34:56;99452.25;;;13.41;77.66
77685;BME280;66844;46.092;18.268;2023-08-08T00:35:28;99460.38;;;13.40;77.69
77685;BME280;66844;46.092;18.268;2023-08-08T00:36:00;99463.16;;;13.38;77.54
77685;BME280;66844;46.092;18.268;2023-08-08T00:36:32;99454.28;;;13.38;77.80
77685;BME280;66844;46.092;18.268;2023-08-08T00:37:04;99459.84;;;13.35;78.06
77685;BME280;66844;46.092;18.268;2023-08-08T00:37:36;99462.38;;;13.36;77.96
77685;BME280;66844;46.092;18.268;2023-08-08T00:38:07;99458.97;;;13.34;78.25
77685;BME280;66844;46.092;18.268;2023-08-08T00:38:39;99460.69;;;13.23;78.76
77685;BME280;66844;46.092;18.268;2023-08-08T00:39:11;99452.78;;;13.21;79.12
77685;BME280;66844;46.092;18.268;2023-08-08T00:39:43;99460.69;;;13.23;78.74
77685;BME280;66844;46.092;18.268;2023-08-08T00:40:17;99462.50;;;13.22;78.77
77685;BME280;66844;46.092;18.268;2023-08-08T00:40:49;99463.25;;;13.24;79.00
77685;BME280;66844;46.092;18.268;2023-08-08T00:41:21;99457.06;;;13.24;79.06
77685;BME280;66844;46.092;18.268;2023-08-08T00:41:53;99461.75;;;13.20;79.27
77685;BME280;66844;46.092;18.268;2023-08-08T00:42:25;99459.31;;;13.17;79.50
77685;BME280;66844;46.092;18.268;2023-08-08T00:42:57;99461.97;;;13.17;79.42
77685;BME280;66844;46.092;18.268;2023-08-08T00:43:29;99454.28;;;13.13;79.46
77685;BME280;66844;46.092;18.268;2023-08-08T00:44:01;99460.25;;;13.16;79.45
77685;BME280;66844;46.092;18.268;2023-08-08T00:44:33;99461.84;;;13.19;78.84
77685;BME280;66844;46.092;18.268;2023-08-08T00:45:06;99465.38;;;13.19;79.10
77685;BME280;66844;46.092;18.268;2023-08-08T00:45:42;99466.25;;;13.20;79.33
77685;BME280;66844;46.092;18.268;2023-08-08T00:46:14;99463.56;;;13.20;79.23
77685;BME280;66844;46.092;18.268;2023-08-08T00:46:47;99459.31;;;13.17;78.97
77685;BME280;66844;46.092;18.268;2023-08-08T00:47:19;99462.81;;;13.18;79.35
77685;BME280;66844;46.092;18.268;2023-08-08T00:47:51;99466.25;;;13.20;79.16
77685;BME280;66844;46.092;18.268;2023-08-08T00:48:24;99467.19;;;13.19;79.62
77685;BME280;66844;46.092;18.268;2023-08-08T00:48:56;99466.47;;;13.17;79.68
77685;BME280;66844;46.092;18.268;2023-08-08T00:49:28;99466.78;;;13.12;79.73
77685;BME280;66844;46.092;18.268;2023-08-08T00:50:03;99464.09;;;13.12;79.74
77685;BME280;66844;46.092;18.268;2023-08-08T00:50:36;99471.16;;;13.13;79.46
77685;BME280;66844;46.092;18.268;2023-08-08T00:51:09;99466.69;;;13.14;79.66
77685;BME280;66844;46.092;18.268;2023-08-08T00:51:41;99466.69;;;13.14;79.61
77685;BME280;66844;46.092;18.268;2023-08-08T00:52:14;99471.91;;;13.15;79.97
77685;BME280;66844;46.092;18.268;2023-08-08T00:52:47;99472.97;;;13.13;79.99
77685;BME280;66844;46.092;18.268;2023-08-08T00:53:19;99480.22;;;13.10;79.64
77685;BME280;66844;46.092;18.268;2023-08-08T00:53:54;99477.44;;;13.12;79.73
77685;BME280;66844;46.092;18.268;2023-08-08T00:54:28;99478.31;;;13.13;80.12
77685;BME280;66844;46.092;18.268;2023-08-08T00:55:00;99484.50;;;13.13;79.84
77685;BME280;66844;46.092;18.268;2023-08-08T00:55:33;99483.53;;;13.14;79.79
77685;BME280;66844;46.092;18.268;2023-08-08T00:56:05;99486.19;;;13.14;79.95
77685;BME280;66844;46.092;18.268;2023-08-08T00:56:37;99485.38;;;13.14;79.83
77685;BME280;66844;46.092;18.268;2023-08-08T00:57:09;99484.28;;;13.16;79.85
77685;BME280;66844;46.092;18.268;2023-08-08T00:57:42;99490.38;;;13.18;79.79
77685;BME280;66844;46.092;18.268;2023-08-08T00:58:15;99487.69;;;13.18;79.56
77685;BME280;66844;46.092;18.268;2023-08-08T00:58:48;99492.09;;;13.19;79.63
77685;BME280;66844;46.092;18.268;2023-08-08T00:59:23;99493.69;;;13.22;79.56
77685;BME280;66844;46.092;18.268;2023-08-08T00:59:55;99495.41;;;13.23;79.51
77685;BME280;66844;46.092;18.268;2023-08-08T01:00:27;99497.22;;;13.22;79.58
77685;BME280;66844;46.092;18.268;2023-08-08T01:00:59;99495.41;;;13.23;79.56
77685;BME280;66844;46.092;18.268;2023-08-08T01:01:32;99487.53;;;13.21;79.73
77685;BME280;66844;46.092;18.268;2023-08-08T01:02:04;99493.69;;;13.22;79.99
77685;BME280;66844;46.092;18.268;2023-08-08T01:02:36;99490.06;;;13.23;79.93
77685;BME280;66844;46.092;18.268;2023-08-08T01:03:08;99501.84;;;13.20;80.26
77685;BME280;66844;46.092;18.268;2023-08-08T01:03:40;99496.59;;;13.19;80.54
77685;BME280;66844;46.092;18.268;2023-08-08T01:04:13;99500.88;;;13.21;80.79
77685;BME280;66844;46.092;18.268;2023-08-08T01:04:45;99498.31;;;13.20;80.83
77685;BME280;66844;46.092;18.268;2023-08-08T01:05:17;99502.69;;;13.21;80.86
77685;BME280;66844;46.092;18.268;2023-08-08T01:06:10;99495.41;;;13.23;80.65
77685;BME280;66844;46.092;18.268;2023-08-08T01:07:47;99505.03;;;13.25;80.60
77685;BME280;66844;46.092;18.268;2023-08-08T01:08:30;99501.63;;;13.23;80.15
77685;BME280;66844;46.092;18.268;2023-08-08T01:09:15;99505.78;;;13.27;80.45
77685;BME280;66844;46.092;18.268;2023-08-08T01:09:55;99501.53;;;13.25;80.59
77685;BME280;66844;46.092;18.268;2023-08-08T01:10:39;99503.97;;;13.28;80.51
77685;BME280;66844;46.092;18.268;2023-08-08T01:11:11;99505.03;;;13.25;80.55
77685;BME280;66844;46.092;18.268;2023-08-08T01:11:45;99507.59;;;13.27;80.61
77685;BME280;66844;46.092;18.268;2023-08-08T01:12:21;99504.06;;;13.26;80.47
77685;BME280;66844;46.092;18.268;2023-08-08T01:13:02;99506.66;;;13.28;80.35
77685;BME280;66844;46.092;18.268;2023-08-08T01:13:37;99507.50;;;13.28;80.40
77685;BME280;66844;46.092;18.268;2023-08-08T01:14:11;99510.38;;;13.25;81.32
77685;BME280;66844;46.092;18.268;2023-08-08T01:14:43;99503.34;;;13.24;81.26
77685;BME280;66844;46.092;18.268;2023-08-08T01:15:17;99500.97;;;13.20;81.54
77685;BME280;66844;46.092;18.268;2023-08-08T01:15:49;99502.34;;;13.13;82.13
77685;BME280;66844;46.092;18.268;2023-08-08T01:16:24;99498.16;;;13.08;82.43
77685;BME280;66844;46.092;18.268;2023-08-08T01:16:59;99500.53;;;13.13;82.22
77685;BME280;66844;46.092;18.268;2023-08-08T01:17:32;99496.69;;;13.17;82.22
77685;BME280;66844;46.092;18.268;2023-08-08T01:18:06;99496.06;;;13.14;81.87
77685;BME280;66844;46.092;18.268;2023-08-08T01:18:39;99494.03;;;13.17;81.61
77685;BME280;66844;46.092;18.268;2023-08-08T01:19:17;99488.56;;;13.19;81.57
77685;BME280;66844;46.092;18.268;2023-08-08T01:19:54;99493.81;;;13.20;81.44
77685;BME280;66844;46.092;18.268;2023-08-08T01:20:26;99493.69;;;13.22;80.96
77685;BME280;66844;46.092;18.268;2023-08-08T01:20:59;99493.91;;;13.19;81.48
77685;BME280;66844;46.092;18.268;2023-08-08T01:21:35;99492.41;;;13.15;81.78
77685;BME280;66844;46.092;18.268;2023-08-08T01:22:23;99489.72;;;13.15;81.96
77685;BME280;66844;46.092;18.268;2023-08-08T01:23:16;99490.19;;;13.21;81.88
77685;BME280;66844;46.092;18.268;2023-08-08T01:24:01;99491.16;;;13.20;82.02
77685;BME280;66844;46.092;18.268;2023-08-08T01:24:37;99492.97;;;13.20;81.51
77685;BME280;66844;46.092;18.268;2023-08-08T01:25:10;99491.03;;;13.22;81.39
77685;BME280;66844;46.092;18.268;2023-08-08T01:25:43;99491.88;;;13.22;81.37
77685;BME280;66844;46.092;18.268;2023-08-08T01:26:16;99494.47;;;13.24;81.59
77685;BME280;66844;46.092;18.268;2023-08-08T01:26:49;99495.19;;;13.26;81.65
77685;BME280;66844;46.092;18.268;2023-08-08T01:27:22;99498.72;;;13.26;81.93
77685;BME280;66844;46.092;18.268;2023-08-08T01:27:54;99498.84;;;13.25;81.87
77685;BME280;66844;46.092;18.268;2023-08-08T01:28:26;99501.53;;;13.25;81.91
77685;BME280;66844;46.092;18.268;2023-08-08T01:28:58;99498.94;;;13.23;81.48
77685;BME280;66844;46.092;18.268;2023-08-08T01:29:30;99499.69;;;13.25;81.42
77685;BME280;66844;46.092;18.268;2023-08-08T01:30:02;99497.00;;;13.25;81.32
77685;BME280;66844;46.092;18.268;2023-08-08T01:30:35;99494.47;;;13.24;81.58
77685;BME280;66844;46.092;18.268;2023-08-08T01:31:07;99497.13;;;13.24;81.73
77685;BME280;66844;46.092;18.268;2023-08-08T01:31:39;99499.59;;;13.27;81.33
77685;BME280;66844;46.092;18.268;2023-08-08T01:32:11;99503.13;;;13.27;81.25
77685;BME280;66844;46.092;18.268;2023-08-08T01:32:43;99505.66;;;13.29;81.66
77685;BME280;66844;46.092;18.268;2023-08-08T01:33:15;99498.63;;;13.28;81.55
77685;BME280;66844;46.092;18.268;2023-08-08T01:33:48;99495.19;;;13.26;81.30
77685;BME280;66844;46.092;18.268;2023-08-08T01:34:20;99503.13;;;13.27;81.37
77685;BME280;66844;46.092;18.268;2023-08-08T01:34:52;99500.53;;;13.26;81.50
77685;BME280;66844;46.092;18.268;2023-08-08T01:35:29;99497.66;;;13.29;81.73
77685;BME280;66844;46.092;18.268;2023-08-08T01:36:12;99494.03;;;13.30;81.45
77685;BME280;66844;46.092;18.268;2023-08-08T01:36:55;99497.66;;;13.29;81.12
77685;BME280;66844;46.092;18.268;2023-08-08T01:37:44;99496.81;;;13.28;80.99
77685;BME280;66844;46.092;18.268;2023-08-08T01:38:29;99497.66;;;13.29;81.24
77685;BME280;66844;46.092;18.268;2023-08-08T01:39:05;99489.13;;;13.24;81.95
77685;BME280;66844;46.092;18.268;2023-08-08T01:39:43;99490.94;;;13.23;81.63
77685;BME280;66844;46.092;18.268;2023-08-08T01:40:17;99493.50;;;13.25;81.40
77685;BME280;66844;46.092;18.268;2023-08-08T01:40:49;99492.75;;;13.23;81.81
77685;BME280;66844;46.092;18.268;2023-08-08T01:41:23;99495.63;;;13.20;81.87
77685;BME280;66844;46.092;18.268;2023-08-08T01:41:56;99497.53;;;13.18;81.84
77685;BME280;66844;46.092;18.268;2023-08-08T01:42:31;99500.53;;;13.13;81.84
77685;BME280;66844;46.092;18.268;2023-08-08T01:43:04;99492.75;;;13.10;81.54
77685;BME280;66844;46.092;18.268;2023-08-08T01:43:39;99497.38;;;13.06;81.07
77685;BME280;66844;46.092;18.268;2023-08-08T01:44:12;99500.91;;;13.07;80.78
77685;BME280;66844;46.092;18.268;2023-08-08T01:44:45;99493.97;;;13.04;80.85
77685;BME280;66844;46.092;18.268;2023-08-08T01:45:18;99492.03;;;13.06;80.45
77685;BME280;66844;46.092;18.268;2023-08-08T01:45:51;99492.81;;;13.08;80.02
77685;BME280;66844;46.092;18.268;2023-08-08T01:46:25;99495.47;;;13.08;80.03
77685;BME280;66844;46.092;18.268;2023-08-08T01:46:58;99493.66;;;13.09;79.74
77685;BME280;66844;46.092;18.268;2023-08-08T01:47:30;99492.75;;;13.10;79.85
77685;BME280;66844;46.092;18.268;2023-08-08T01:48:09;99495.47;;;13.08;80.10
77685;BME280;66844;46.092;18.268;2023-08-08T01:48:45;99497.88;;;13.13;79.58
77685;BME280;66844;46.092;18.268;2023-08-08T01:49:18;99496.59;;;13.19;79.03
77685;BME280;66844;46.092;18.268;2023-08-08T01:49:50;99502.03;;;13.17;79.14
77685;BME280;66844;46.092;18.268;2023-08-08T01:50:22;99508.03;;;13.21;79.21
77685;BME280;66844;46.092;18.268;2023-08-08T01:50:54;99502.56;;;13.22;79.09
77685;BME280;66844;46.092;18.268;2023-08-08T01:51:27;99503.56;;;13.21;79.02
77685;BME280;66844;46.092;18.268;2023-08-08T01:51:59;99501.53;;;13.25;79.14
77685;BME280;66844;46.092;18.268;2023-08-08T01:52:32;99504.06;;;13.26;79.27
77685;BME280;66844;46.092;18.268;2023-08-08T01:53:04;99502.25;;;13.27;79.16
77685;BME280;66844;46.092;18.268;2023-08-08T01:53:36;99503.75;;;13.31;78.15
77685;BME280;66844;46.092;18.268;2023-08-08T01:54:08;99501.00;;;13.32;78.49
77685;BME280;66844;46.092;18.268;2023-08-08T01:54:40;99499.28;;;13.31;78.79
77685;BME280;66844;46.092;18.268;2023-08-08T01:55:14;99500.66;;;13.24;79.60
77685;BME280;66844;46.092;18.268;2023-08-08T01:55:46;99507.06;;;13.22;80.30
77685;BME280;66844;46.092;18.268;2023-08-08T01:56:18;99504.38;;;13.22;80.48
77685;BME280;66844;46.092;18.268;2023-08-08T01:56:50;99505.25;;;13.22;79.77
77685;BME280;66844;46.092;18.268;2023-08-08T01:57:21;99501.72;;;13.22;79.26
77685;BME280;66844;46.092;18.268;2023-08-08T01:57:54;99501.31;;;13.28;78.95
77685;BME280;66844;46.092;18.268;2023-08-08T01:58:26;99506.44;;;13.31;79.13
77685;BME280;66844;46.092;18.268;2023-08-08T01:58:58;99510.81;;;13.32;79.21
77685;BME280;66844;46.092;18.268;2023-08-08T01:59:30;99512.53;;;13.33;79.06
77685;BME280;66844;46.092;18.268;2023-08-08T02:00:02;99506.53;;;13.29;79.21
77685;BME280;66844;46.092;18.268;2023-08-08T02:00:36;99500.66;;;13.24;79.48
77685;BME280;66844;46.092;18.268;2023-08-08T02:01:08;99511.22;;;13.26;79.38
77685;BME280;66844;46.092;18.268;2023-08-08T02:01:40;99511.66;;;13.20;80.62
77685;BME280;66844;46.092;18.268;2023-08-08T02:02:12;99510.56;;;13.09;81.38
77685;BME280;66844;46.092;18.268;2023-08-08T02:02:44;99508.78;;;13.10;81.16
77685;BME280;66844;46.092;18.268;2023-08-08T02:03:16;99509.69;;;13.09;81.28
77685;BME280;66844;46.092;18.268;2023-08-08T02:03:48;99513.91;;;13.13;80.99
77685;BME280;66844;46.092;18.268;2023-08-08T02:04:20;99503.09;;;13.15;80.56
77685;BME280;66844;46.092;18.268;2023-08-08T02:04:52;99512.81;;;13.16;80.49
77685;BME280;66844;46.092;18.268;2023-08-08T02:05:24;99503.94;;;13.15;80.15
77685;BME280;66844;46.092;18.268;2023-08-08T02:05:57;99507.56;;;13.14;80.08
77685;BME280;66844;46.092;18.268;2023-08-08T02:06:29;99517.09;;;13.18;80.22
77685;BME280;66844;46.092;18.268;2023-08-08T02:07:01;99507.25;;;13.19;80.23
77685;BME280;66844;46.092;18.268;2023-08-08T02:07:33;99506.63;;;13.15;80.90
77685;BME280;66844;46.092;18.268;2023-08-08T02:08:05;99510.56;;;13.09;81.33
77685;BME280;66844;46.092;18.268;2023-08-08T02:08:37;99509.03;;;13.05;81.83
77685;BME280;66844;46.092;18.268;2023-08-08T02:09:10;99508.91;;;13.07;81.58
77685;BME280;66844;46.092;18.268;2023-08-08T02:09:42;99515.13;;;13.07;81.27
77685;BME280;66844;46.092;18.268;2023-08-08T02:10:14;99503.56;;;13.07;81.26
77685;BME280;66844;46.092;18.268;2023-08-08T02:10:46;99511.50;;;13.08;80.91
77685;BME280;66844;46.092;18.268;2023-08-08T02:11:19;99510.56;;;13.09;80.32
77685;BME280;66844;46.092;18.268;2023-08-08T02:11:51;99507.91;;;13.09;80.78
77685;BME280;66844;46.092;18.268;2023-08-08T02:12:22;99511.31;;;13.11;80.61
77685;BME280;66844;46.092;18.268;2023-08-08T02:12:54;99507.00;;;13.09;81.08
77685;BME280;66844;46.092;18.268;2023-08-08T02:13:26;99513.31;;;13.08;81.16
77685;BME280;66844;46.092;18.268;2023-08-08T02:13:58;99506.91;;;13.10;80.59
77685;BME280;66844;46.092;18.268;2023-08-08T02:14:30;99515.28;;;13.19;78.54
77685;BME280;66844;46.092;18.268;2023-08-08T02:15:02;99516.56;;;13.26;79.20
77685;BME280;66844;46.092;18.268;2023-08-08T02:15:36;99511.44;;;13.23;80.10
77685;BME280;66844;46.092;18.268;2023-08-08T02:16:08;99517.84;;;13.20;80.48
77685;BME280;66844;46.092;18.268;2023-08-08T02:16:40;99509.00;;;13.20;80.65
77685;BME280;66844;46.092;18.268;2023-08-08T02:17:14;99507.06;;;13.22;80.49
77685;BME280;66844;46.092;18.268;2023-08-08T02:17:46;99513.25;;;13.22;80.38
77685;BME280;66844;46.092;18.268;2023-08-08T02:18:19;99506.00;;;13.24;79.68
77685;BME280;66844;46.092;18.268;2023-08-08T02:18:51;99513.03;;;13.25;78.96
77685;BME280;66844;46.092;18.268;2023-08-08T02:19:23;99515.72;;;13.25;80.02
77685;BME280;66844;46.092;18.268;2023-08-08T02:19:54;99514.75;;;13.26;79.75
77685;BME280;66844;46.092;18.268;2023-08-08T02:20:28;99505.88;;;13.26;79.69
77685;BME280;66844;46.092;18.268;2023-08-08T02:21:00;99514.75;;;13.26;79.81
77685;BME280;66844;46.092;18.268;2023-08-08T02:21:32;99515.31;;;13.31;79.92
77685;BME280;66844;46.092;18.268;2023-08-08T02:22:04;99517.97;;;13.31;80.29
77685;BME280;66844;46.092;18.268;2023-08-08T02:22:36;99509.97;;;13.31;80.05
77685;BME280;66844;46.092;18.268;2023-08-08T02:23:08;99505.56;;;13.30;80.36
77685;BME280;66844;46.092;18.268;2023-08-08T02:23:40;99511.00;;;13.29;80.51
77685;BME280;66844;46.092;18.268;2023-08-08T02:24:12;99516.34;;;13.29;80.10
77685;BME280;66844;46.092;18.268;2023-08-08T02:24:44;99520.88;;;13.28;80.47
77685;BME280;66844;46.092;18.268;2023-08-08T02:25:15;99504.84;;;13.28;80.45
77685;BME280;66844;46.092;18.268;2023-08-08T02:25:47;99510.91;;;13.30;80.31
77685;BME280;66844;46.092;18.268;2023-08-08T02:26:20;99506.34;;;13.32;80.03
77685;BME280;66844;46.092;18.268;2023-08-08T02:26:52;99513.28;;;13.35;79.89
77685;BME280;66844;46.092;18.268;2023-08-08T02:27:24;99503.34;;;13.37;79.59
77685;BME280;66844;46.092;18.268;2023-08-08T02:27:57;99502.59;;;13.35;79.86
77685;BME280;66844;46.092;18.268;2023-08-08T02:28:29;99510.41;;;13.38;79.77
77685;BME280;66844;46.092;18.268;2023-08-08T02:29:01;99511.25;;;13.38;79.04
77685;BME280;66844;46.092;18.268;2023-08-08T02:29:33;99512.00;;;13.40;79.56
77685;BME280;66844;46.092;18.268;2023-08-08T02:30:05;99510.31;;;13.39;80.02
77685;BME280;66844;46.092;18.268;2023-08-08T02:30:38;99508.59;;;13.38;80.17
77685;BME280;66844;46.092;18.268;2023-08-08T02:31:10;99512.84;;;13.41;79.94
77685;BME280;66844;46.092;18.268;2023-08-08T02:31:42;99506.66;;;13.40;80.36
77685;BME280;66844;46.092;18.268;2023-08-08T02:32:14;99507.41;;;13.42;80.17
77685;BME280;66844;46.092;18.268;2023-08-08T02:32:46;99512.63;;;13.44;78.72
77685;BME280;66844;46.092;18.268;2023-08-08T02:33:18;99520.56;;;13.45;78.47
77685;BME280;66844;46.092;18.268;2023-08-08T02:33:51;99503.56;;;13.46;78.72
77685;BME280;66844;46.092;18.268;2023-08-08T02:34:23;99515.13;;;13.47;79.50
77685;BME280;66844;46.092;18.268;2023-08-08T02:34:55;99512.22;;;13.50;77.78
77685;BME280;66844;46.092;18.268;2023-08-08T02:35:27;99505.94;;;13.51;78.14
77685;BME280;66844;46.092;18.268;2023-08-08T02:35:59;99516.41;;;13.54;77.24
77685;BME280;66844;46.092;18.268;2023-08-08T02:36:31;99513.59;;;13.55;77.99
77685;BME280;66844;46.092;18.268;2023-08-08T02:37:05;99504.84;;;13.53;78.50
77685;BME280;66844;46.092;18.268;2023-08-08T02:37:37;99513.50;;;13.57;78.02
77685;BME280;66844;46.092;18.268;2023-08-08T02:38:08;99517.34;;;13.53;79.35
77685;BME280;66844;46.092;18.268;2023-08-08T02:38:41;99510.28;;;13.52;78.28
77685;BME280;66844;46.092;18.268;2023-08-08T02:39:13;99513.59;;;13.55;77.82
77685;BME280;66844;46.092;18.268;2023-08-08T02:39:45;99515.00;;;13.61;76.97
77685;BME280;66844;46.092;18.268;2023-08-08T02:40:17;99512.84;;;13.66;76.31
77685;BME280;66844;46.092;18.268;2023-08-08T02:40:49;99514.56;;;13.67;76.25
77685;BME280;66844;46.092;18.268;2023-08-08T02:41:21;99513.94;;;13.64;77.16
77685;BME280;66844;46.092;18.268;2023-08-08T02:41:53;99513.84;;;13.65;77.39
77685;BME280;66844;46.092;18.268;2023-08-08T02:42:25;99513.94;;;13.64;78.40
77685;BME280;66844;46.092;18.268;2023-08-08T02:42:57;99522.19;;;13.60;78.72
77685;BME280;66844;46.092;18.268;2023-08-08T02:43:29;99516.28;;;13.55;79.44
77685;BME280;66844;46.092;18.268;2023-08-08T02:44:01;99519.81;;;13.56;79.44
77685;BME280;66844;46.092;18.268;2023-08-08T02:44:33;99521.84;;;13.52;79.48
77685;BME280;66844;46.092;18.268;2023-08-08T02:45:05;99524.50;;;13.52;79.41
77685;BME280;66844;46.092;18.268;2023-08-08T02:45:38;99524.50;;;13.52;79.63
77685;BME280;66844;46.092;18.268;2023-08-08T02:46:09;99531.69;;;13.52;79.88
77685;BME280;66844;46.092;18.268;2023-08-08T02:46:41;99529.00;;;13.52;80.37
77685;BME280;66844;46.092;18.268;2023-08-08T02:47:13;99522.06;;;13.49;80.01
77685;BME280;66844;46.092;18.268;2023-08-08T02:47:45;99529.22;;;13.49;80.15
77685;BME280;66844;46.092;18.268;2023-08-08T02:48:17;99524.81;;;13.48;80.01
77685;BME280;66844;46.092;18.268;2023-08-08T02:48:49;99527.50;;;13.48;80.13
77685;BME280;66844;46.092;18.268;2023-08-08T02:49:21;99527.63;;;13.46;79.84
77685;BME280;66844;46.092;18.268;2023-08-08T02:49:53;99528.56;;;13.45;80.17
77685;BME280;66844;46.092;18.268;2023-08-08T02:50:25;99535.88;;;13.43;80.68
77685;BME280;66844;46.092;18.268;2023-08-08T02:50:57;99526.13;;;13.42;80.55
77685;BME280;66844;46.092;18.268;2023-08-08T02:51:29;99535.00;;;13.43;80.41
77685;BME280;66844;46.092;18.268;2023-08-08T02:52:01;99526.00;;;13.44;80.32
77685;BME280;66844;46.092;18.268;2023-08-08T02:52:33;99522.50;;;13.43;80.66
77685;BME280;66844;46.092;18.268;2023-08-08T02:53:05;99520.88;;;13.41;80.61
77685;BME280;66844;46.092;18.268;2023-08-08T02:53:37;99531.34;;;13.44;80.23